createdAt,value
2019-03-24T00:00:28.216Z,15.73
2019-03-24T00:02:59.485Z,16.40
2019-03-24T00:05:30.763Z,16.73
2019-03-24T00:08:01.989Z,17.30
2019-03-24T00:10:33.231Z,16.17
2019-03-24T00:13:04.549Z,16.20
2019-03-24T00:15:35.824Z,14.77
2019-03-24T00:18:07.153Z,15.27
2019-03-24T00:20:38.389Z,15.43
2019-03-24T00:23:10.028Z,15.57
2019-03-24T00:25:41.296Z,16.10
2019-03-24T00:28:12.573Z,16.97
2019-03-24T00:30:43.918Z,15.87
2019-03-24T00:33:15.223Z,15.13
2019-03-24T00:35:47.426Z,15.17
2019-03-24T00:38:19.942Z,15.03
2019-03-24T00:40:51.190Z,13.80
2019-03-24T00:43:22.495Z,14.13
2019-03-24T00:45:53.738Z,15.30
2019-03-24T00:48:25.181Z,14.83
2019-03-24T00:50:56.423Z,14.73
2019-03-24T00:53:27.760Z,15.20
2019-03-24T00:55:58.995Z,14.37
2019-03-24T00:58:30.293Z,15.27
2019-03-24T01:01:01.884Z,16.10
2019-03-24T01:03:33.190Z,14.93
2019-03-24T01:06:04.527Z,15.30
2019-03-24T01:08:35.881Z,14.67
2019-03-24T01:11:07.133Z,15.40
2019-03-24T01:13:38.359Z,15.30
2019-03-24T01:16:09.597Z,15.07
2019-03-24T01:18:40.865Z,14.40
2019-03-24T01:21:12.479Z,14.27
2019-03-24T01:23:43.743Z,14.23
2019-03-24T01:26:14.982Z,14.93
2019-03-24T01:28:47.877Z,14.97
2019-03-24T01:31:19.205Z,13.83
2019-03-24T01:33:50.455Z,14.87
2019-03-24T01:36:21.678Z,14.07
2019-03-24T01:38:52.963Z,13.93
2019-03-24T01:41:24.203Z,13.67
2019-03-24T01:43:55.385Z,13.67
2019-03-24T01:46:26.609Z,15.97
2019-03-24T01:48:57.965Z,15.67
2019-03-24T01:51:29.231Z,15.20
2019-03-24T01:54:00.427Z,15.23
2019-03-24T01:56:31.738Z,14.90
2019-03-24T01:59:02.953Z,16.00
2019-03-24T02:01:34.181Z,15.27
2019-03-24T02:04:05.411Z,15.70
2019-03-24T02:06:38.580Z,14.80
2019-03-24T02:09:11.055Z,15.80
2019-03-24T02:11:42.280Z,15.07
2019-03-24T02:14:13.507Z,15.10
2019-03-24T02:16:44.757Z,15.60
2019-03-24T02:19:16.164Z,14.40
2019-03-24T02:21:47.529Z,14.93
2019-03-24T02:24:20.580Z,14.13
2019-03-24T02:26:51.783Z,14.93
2019-03-24T02:29:23.000Z,15.27
2019-03-24T02:31:54.317Z,15.07
2019-03-24T02:34:25.533Z,15.63
2019-03-24T02:36:56.837Z,14.10
2019-03-24T02:39:28.118Z,14.13
2019-03-24T02:41:59.498Z,13.30
2019-03-24T02:44:30.860Z,14.50
2019-03-24T02:47:02.083Z,13.40
2019-03-24T02:49:33.308Z,15.23
2019-03-24T02:52:04.565Z,14.77
2019-03-24T02:54:35.851Z,15.07
2019-03-24T02:57:09.814Z,14.87
2019-03-24T02:59:41.063Z,15.27
2019-03-24T03:02:12.285Z,14.60
2019-03-24T03:04:43.557Z,14.97
2019-03-24T03:07:14.784Z,14.73
2019-03-24T03:09:46.151Z,15.17
2019-03-24T03:12:17.397Z,15.83
2019-03-24T03:14:48.638Z,15.07
2019-03-24T03:17:19.892Z,16.40
2019-03-24T03:19:53.602Z,17.17
2019-03-24T03:22:24.164Z,17.40
2019-03-24T03:24:56.803Z,18.13
2019-03-24T03:27:28.024Z,17.47
2019-03-24T03:29:59.483Z,15.27
2019-03-24T03:32:30.844Z,16.23
2019-03-24T03:35:02.108Z,15.80
2019-03-24T03:37:33.507Z,14.60
2019-03-24T03:40:05.474Z,14.87
2019-03-24T03:42:37.163Z,14.50
2019-03-24T03:45:09.967Z,13.77
2019-03-24T03:47:41.297Z,15.47
2019-03-24T03:50:13.463Z,13.93
2019-03-24T03:52:44.688Z,14.27
2019-03-24T03:55:16.036Z,13.77
2019-03-24T03:57:47.305Z,12.57
2019-03-24T04:00:22.088Z,13.43
2019-03-24T04:02:53.349Z,13.87
2019-03-24T04:05:24.629Z,14.00
2019-03-24T04:07:55.962Z,14.70
2019-03-24T04:10:27.257Z,13.17
2019-03-24T04:12:58.576Z,14.27
2019-03-24T04:15:29.838Z,15.10
2019-03-24T04:18:01.151Z,14.30
2019-03-24T04:20:32.354Z,13.90
2019-03-24T04:23:03.624Z,14.30
2019-03-24T04:25:34.852Z,13.47
2019-03-24T04:28:06.193Z,14.53
2019-03-24T04:30:37.422Z,14.87
2019-03-24T04:33:08.648Z,14.47
2019-03-24T04:35:39.995Z,16.00
2019-03-24T04:38:11.396Z,14.63
2019-03-24T04:40:42.631Z,14.70
2019-03-24T04:43:13.855Z,15.40
2019-03-24T04:45:45.059Z,15.40
2019-03-24T04:48:16.366Z,15.60
2019-03-24T04:50:47.602Z,16.17
2019-03-24T04:53:20.716Z,16.03
2019-03-24T04:55:51.764Z,15.60
2019-03-24T04:58:23.027Z,15.60
2019-03-24T05:00:54.241Z,15.73
2019-03-24T05:03:25.544Z,15.47
2019-03-24T05:06:00.060Z,16.93
2019-03-24T05:08:31.785Z,21.30
2019-03-24T05:11:03.017Z,20.37
2019-03-24T05:13:34.457Z,17.60
2019-03-24T05:16:05.701Z,17.70
2019-03-24T05:18:37.079Z,17.57
2019-03-24T05:21:09.413Z,19.47
2019-03-24T05:23:40.657Z,18.93
2019-03-24T05:26:11.881Z,18.30
2019-03-24T05:28:43.125Z,19.73
2019-03-24T05:31:14.374Z,21.53
2019-03-24T05:33:45.642Z,22.23
2019-03-24T05:36:16.841Z,19.60
2019-03-24T05:38:48.119Z,17.80
2019-03-24T05:41:19.387Z,17.10
2019-03-24T05:43:50.666Z,15.17
2019-03-24T05:46:21.910Z,14.23
2019-03-24T05:48:53.170Z,14.03
2019-03-24T05:51:24.424Z,14.77
2019-03-24T05:53:55.690Z,14.60
2019-03-24T05:56:26.925Z,14.47
2019-03-24T05:58:58.211Z,14.53
2019-03-24T06:01:29.456Z,14.60
2019-03-24T06:04:00.842Z,13.67
2019-03-24T06:06:32.047Z,15.60
2019-03-24T06:09:04.887Z,16.40
2019-03-24T06:11:36.337Z,16.20
2019-03-24T06:14:09.821Z,15.77
2019-03-24T06:16:41.164Z,16.27
2019-03-24T06:19:12.493Z,16.63
2019-03-24T06:21:43.774Z,16.53
2019-03-24T06:24:15.005Z,16.87
2019-03-24T06:26:46.347Z,18.17
2019-03-24T06:29:17.571Z,19.23
2019-03-24T06:31:49.943Z,19.23
2019-03-24T06:34:21.197Z,20.77
2019-03-24T06:36:52.442Z,20.33
2019-03-24T06:39:23.687Z,21.57
2019-03-24T06:41:54.905Z,21.07
2019-03-24T06:44:26.271Z,19.80
2019-03-24T06:46:57.611Z,19.63
2019-03-24T06:49:28.831Z,18.53
2019-03-24T06:52:00.089Z,17.37
2019-03-24T06:54:31.361Z,15.43
2019-03-24T06:57:02.567Z,14.27
2019-03-24T06:59:33.872Z,13.90
2019-03-24T07:02:05.160Z,13.80
2019-03-24T07:04:36.450Z,12.80
2019-03-24T07:07:07.680Z,13.33
2019-03-24T07:09:39.203Z,12.33
2019-03-24T07:12:12.208Z,12.23
2019-03-24T07:14:43.479Z,12.50
2019-03-24T07:17:14.727Z,12.90
2019-03-24T07:19:48.172Z,12.90
2019-03-24T07:22:19.701Z,12.57
2019-03-24T07:24:51.133Z,12.83
2019-03-24T07:27:22.464Z,12.33
2019-03-24T07:29:53.717Z,13.60
2019-03-24T07:32:24.945Z,14.40
2019-03-24T07:34:56.604Z,14.57
2019-03-24T07:37:27.965Z,14.57
2019-03-24T07:40:00.491Z,14.27
2019-03-24T07:42:31.728Z,13.50
2019-03-24T07:45:03.822Z,14.43
2019-03-24T07:47:35.069Z,13.77
2019-03-24T07:50:07.585Z,14.67
2019-03-24T07:52:40.121Z,13.80
2019-03-24T07:55:11.571Z,13.50
2019-03-24T07:57:42.837Z,14.07
2019-03-24T08:00:16.255Z,14.80
2019-03-24T08:02:53.791Z,14.70
2019-03-24T08:05:25.042Z,14.27
2019-03-24T08:07:56.383Z,14.43
2019-03-24T08:10:28.807Z,13.90
2019-03-24T08:13:00.140Z,13.43
2019-03-24T08:15:31.495Z,14.23
2019-03-24T08:18:02.749Z,14.83
2019-03-24T08:20:33.976Z,14.57
2019-03-24T08:23:05.559Z,14.60
2019-03-24T08:25:36.995Z,14.77
2019-03-24T08:28:08.240Z,15.20
2019-03-24T08:30:40.719Z,14.80
2019-03-24T08:33:11.922Z,14.97
2019-03-24T08:35:43.331Z,15.20
2019-03-24T08:38:16.025Z,15.63
2019-03-24T08:40:48.059Z,15.50
2019-03-24T08:43:19.435Z,14.07
2019-03-24T08:45:50.675Z,13.97
2019-03-24T08:48:22.943Z,15.67
2019-03-24T08:50:54.238Z,14.43
2019-03-24T08:53:26.237Z,14.33
2019-03-24T08:56:02.573Z,14.67
2019-03-24T08:58:34.443Z,14.80
2019-03-24T09:01:07.418Z,16.07
2019-03-24T09:03:38.819Z,13.93
2019-03-24T09:06:10.172Z,15.53
2019-03-24T09:08:41.394Z,15.90
2019-03-24T09:11:13.854Z,16.07
2019-03-24T09:13:45.110Z,15.97
2019-03-24T09:16:16.428Z,18.23
2019-03-24T09:18:52.982Z,17.20
2019-03-24T09:21:21.000Z,17.77
2019-03-24T09:23:52.460Z,17.07
2019-03-24T09:26:23.760Z,17.27
2019-03-24T09:28:55.028Z,18.83
2019-03-24T09:31:26.469Z,18.27
2019-03-24T09:33:57.789Z,19.83
2019-03-24T09:36:29.917Z,19.43
2019-03-24T09:39:01.190Z,20.30
2019-03-24T09:41:32.485Z,20.47
2019-03-24T09:44:03.767Z,19.80
2019-03-24T09:46:35.676Z,20.93
2019-03-24T09:49:08.613Z,21.63
